Time;durP1;ratioP1;P1;durP2;ratioP2;P2;SDS_P1;SDS_P2;PMS_P1;PMS_P2;Temp;Humidity;BMP_temperature;BMP_pressure;BME280_temperature;BME280_humidity;BME280_pressure;Samples;Min_cycle;Max_cycle;Signal;HPM_P1;HPM_P2
2023/05/15 00:01:37;;;;;;;16.93;8.83;;;;;;;15.73;52.49;100615.30;1691289;85;21107;-67
2023/05/15 00:04:06;;;;;;;16.90;8.83;;;;;;;15.69;52.60;100616.82;1691348;85;21061;-66
2023/05/15 00:06:37;;;;;;;17.77;8.43;;;;;;;15.65;52.75;100617.81;1691387;83;21100;-65
2023/05/15 00:09:08;;;;;;;14.93;8.15;;;;;;;15.61;52.94;100612.42;1670338;85;21548;-67
2023/05/15 00:11:40;;;;;;;17.27;8.03;;;;;;;15.57;52.93;100611.66;1691536;85;21136;-68
2023/05/15 00:14:10;;;;;;;14.38;7.80;;;;;;;15.55;52.82;100609.97;1691232;85;21045;-66
2023/05/15 00:16:43;;;;;;;13.25;7.83;;;;;;;15.54;52.75;100609.66;1691452;85;21100;-64
2023/05/15 00:19:12;;;;;;;17.05;8.18;;;;;;;15.50;52.56;100607.56;1691397;85;21966;-66
2023/05/15 00:21:42;;;;;;;14.85;7.90;;;;;;;15.46;52.52;100609.94;1691373;85;21086;-64
2023/05/15 00:24:11;;;;;;;14.23;7.87;;;;;;;15.40;52.79;100612.21;1691462;85;21083;-66
2023/05/15 00:26:40;;;;;;;18.20;8.45;;;;;;;15.33;53.05;100608.66;1669652;85;21058;-66
2023/05/15 00:29:10;;;;;;;28.23;10.50;;;;;;;15.30;53.34;100608.27;1691446;85;21033;-65
2023/05/15 00:31:45;;;;;;;26.62;11.33;;;;;;;15.25;53.43;100607.55;1691530;85;21553;-66
2023/05/15 00:34:14;;;;;;;33.08;14.98;;;;;;;15.21;53.69;100609.06;1691403;85;21013;-66
2023/05/15 00:36:45;;;;;;;38.58;14.93;;;;;;;15.14;53.87;100606.89;1669711;85;21056;-68
2023/05/15 00:39:15;;;;;;;36.40;15.35;;;;;;;15.12;54.07;100614.01;1691496;85;21040;-66
2023/05/15 00:41:45;;;;;;;39.65;15.88;;;;;;;15.09;54.24;100614.98;1691418;85;21104;-64
2023/05/15 00:44:17;;;;;;;46.25;16.55;;;;;;;15.03;54.30;100613.11;1691526;85;21049;-65
2023/05/15 00:46:46;;;;;;;34.65;15.40;;;;;;;15.00;54.46;100610.80;1670379;84;21065;-66
2023/05/15 00:49:16;;;;;;;41.00;16.93;;;;;;;14.95;54.55;100610.05;1680033;84;21049;-67
2023/05/15 00:51:45;;;;;;;41.23;17.07;;;;;;;14.89;54.60;100606.27;1679750;85;21013;-64
2023/05/15 00:54:15;;;;;;;39.33;16.25;;;;;;;14.85;54.77;100607.77;1679812;85;21061;-65
2023/05/15 00:56:44;;;;;;;36.75;15.58;;;;;;;14.80;54.92;100606.21;1680040;85;21551;-66
2023/05/15 00:59:14;;;;;;;40.55;15.90;;;;;;;14.78;55.06;100612.48;1679756;85;21018;-64
2023/05/15 01:01:44;;;;;;;41.10;15.85;;;;;;;14.76;55.20;100603.58;1679948;85;21006;-65
2023/05/15 01:04:12;;;;;;;35.58;14.70;;;;;;;14.72;55.35;100603.70;1679624;85;21504;-65
2023/05/15 01:06:42;;;;;;;27.95;13.38;;;;;;;14.69;55.60;100605.52;1679844;85;21077;-65
2023/05/15 01:09:11;;;;;;;28.80;13.72;;;;;;;14.61;55.78;100594.74;1681086;85;21500;-66
2023/05/15 01:11:41;;;;;;;35.40;13.00;;;;;;;14.57;55.94;100597.63;1679619;85;21041;-67
2023/05/15 01:14:11;;;;;;;30.88;11.97;;;;;;;14.57;56.01;100600.38;1679735;85;21540;-65
2023/05/15 01:16:41;;;;;;;25.92;11.35;;;;;;;14.56;55.93;100594.56;1679634;85;21125;-67
2023/05/15 01:19:11;;;;;;;29.67;11.83;;;;;;;14.52;55.97;100604.33;1679891;85;21049;-65
2023/05/15 01:21:55;;;;;;;29.18;14.05;;;;;;;14.47;56.21;100602.77;1679775;85;21201;-65
2023/05/15 01:25:04;;;;;;;46.77;19.05;;;;;;;14.45;56.30;100602.13;1655706;85;21022;-66
2023/05/15 01:27:40;;;;;;;43.10;18.05;;;;;;;14.42;56.48;100603.91;1658551;85;21203;-66
2023/05/15 01:30:24;;;;;;;50.67;18.37;;;;;;;14.38;56.78;100604.04;1679520;85;21038;-66
2023/05/15 01:33:15;;;;;;;41.02;18.37;;;;;;;14.31;56.97;100604.06;1679753;85;21033;-66
2023/05/15 01:35:50;;;;;;;38.63;16.40;;;;;;;14.24;57.06;100601.30;1675692;85;21089;-65
2023/05/15 01:38:37;;;;;;;38.13;15.53;;;;;;;14.17;57.25;100597.72;1656016;85;21065;-65
2023/05/15 01:41:30;;;;;;;33.58;14.58;;;;;;;14.08;57.57;100599.55;1679604;85;21199;-65
2023/05/15 01:44:09;;;;;;;33.55;14.83;;;;;;;13.99;57.90;100605.81;1680086;85;21116;-65
2023/05/15 01:46:41;;;;;;;29.65;11.88;;;;;;;13.97;57.93;100601.05;1679002;85;21046;-66
2023/05/15 01:49:12;;;;;;;22.32;10.65;;;;;;;13.94;57.83;100598.73;1665737;85;21055;-66
2023/05/15 01:51:43;;;;;;;25.50;11.90;;;;;;;13.90;57.84;100600.22;1641783;86;21427;-64
2023/05/15 01:54:13;;;;;;;29.52;11.70;;;;;;;13.87;57.89;100604.78;1646893;86;21063;-65
2023/05/15 01:56:44;;;;;;;33.10;13.18;;;;;;;13.84;58.04;100602.45;1661627;85;21500;-64
2023/05/15 01:59:13;;;;;;;37.65;13.55;;;;;;;13.81;58.29;100609.23;1666683;85;21447;-64
2023/05/15 02:01:42;;;;;;;30.77;13.85;;;;;;;13.79;58.47;100601.72;1647591;86;21481;-69
2023/05/15 02:04:12;;;;;;;37.42;16.42;;;;;;;13.79;58.67;100605.00;1646915;87;21107;-65
2023/05/15 02:06:41;;;;;;;39.67;18.30;;;;;;;13.78;58.63;100604.69;1660802;85;21044;-66
2023/05/15 02:09:11;;;;;;;44.58;17.42;;;;;;;13.76;58.66;100601.30;1613782;88;21089;-66
2023/05/15 02:11:41;;;;;;;35.95;14.80;;;;;;;13.77;58.76;100598.86;1592586;88;21208;-65
2023/05/15 02:14:11;;;;;;;41.05;14.78;;;;;;;13.74;58.76;100601.52;1613065;88;21918;-67
2023/05/15 02:16:40;;;;;;;36.25;16.12;;;;;;;13.76;58.91;100599.92;1571561;88;21101;-67
2023/05/15 02:19:09;;;;;;;36.60;15.32;;;;;;;13.76;59.03;100604.90;1613715;88;21050;-66
2023/05/15 02:21:39;;;;;;;34.30;14.87;;;;;;;13.72;59.17;100600.03;1613996;88;21465;-66
2023/05/15 02:24:08;;;;;;;33.02;14.90;;;;;;;13.72;59.23;100597.28;1592342;88;21117;-65
2023/05/15 02:27:12;;;;;;;31.17;13.88;;;;;;;13.74;59.38;100600.66;1623791;86;21067;-66
2023/05/15 02:30:10;;;;;;;28.40;12.00;;;;;;;13.70;59.55;100598.02;1647602;86;21036;-66
2023/05/15 02:32:50;;;;;;;21.27;9.90;;;;;;;13.66;59.53;100596.75;1662924;85;21135;-66
2023/05/15 02:35:31;;;;;;;26.95;10.72;;;;;;;13.55;59.62;100595.45;1647604;86;21436;-66
2023/05/15 02:38:04;;;;;;;21.60;9.85;;;;;;;13.52;59.86;100596.73;1646895;86;21160;-65
2023/05/15 02:40:35;;;;;;;19.32;10.05;;;;;;;13.54;59.89;100604.25;1646737;87;21056;-66
2023/05/15 02:43:07;;;;;;;22.27;9.80;;;;;;;13.58;59.65;100604.67;1639391;86;21087;-64
2023/05/15 02:45:36;;;;;;;16.25;9.05;;;;;;;13.62;59.79;100607.31;1646948;87;21103;-65
2023/05/15 02:48:07;;;;;;;17.77;9.45;;;;;;;13.64;59.66;100613.45;1658841;85;21566;-66
2023/05/15 02:50:37;;;;;;;19.37;9.63;;;;;;;13.60;59.57;100605.30;1679692;85;21523;-65
2023/05/15 02:53:08;;;;;;;20.23;9.65;;;;;;;13.59;59.73;100609.96;1679628;85;21042;-65
2023/05/15 02:55:37;;;;;;;17.55;9.45;;;;;;;13.58;59.93;100606.89;1658143;85;21069;-64
2023/05/15 02:58:06;;;;;;;28.45;11.90;;;;;;;13.55;60.17;100596.30;1680140;85;21033;-65
2023/05/15 03:00:36;;;;;;;34.70;15.48;;;;;;;13.58;60.31;100597.79;1679853;85;21089;-66
2023/05/15 03:03:06;;;;;;;41.90;16.37;;;;;;;13.61;60.42;100598.73;1679748;85;21033;-65
2023/05/15 03:05:35;;;;;;;34.85;14.78;;;;;;;13.59;60.49;100596.20;1679914;85;21125;-65
2023/05/15 03:08:06;;;;;;;43.33;17.02;;;;;;;13.61;60.58;100597.36;1679948;85;21013;-65
2023/05/15 03:10:36;;;;;;;39.65;16.37;;;;;;;13.60;60.74;100604.77;1679708;85;21614;-66
2023/05/15 03:13:05;;;;;;;43.85;18.23;;;;;;;13.61;60.85;100602.87;1658298;85;21038;-66
2023/05/15 03:15:34;;;;;;;43.73;18.48;;;;;;;13.63;60.99;100596.09;1658659;85;21054;-66
2023/05/15 03:18:04;;;;;;;40.65;18.05;;;;;;;13.67;61.26;100598.45;1679967;85;21066;-64
2023/05/15 03:20:33;;;;;;;41.50;17.62;;;;;;;13.64;61.48;100592.28;1679664;85;21017;-67
2023/05/15 03:23:02;;;;;;;44.95;17.05;;;;;;;13.63;61.65;100597.47;1679748;85;21524;-65
2023/05/15 03:25:32;;;;;;;36.95;16.40;;;;;;;13.64;61.78;100592.80;1601031;89;21073;-66
2023/05/15 03:28:01;;;;;;;34.60;15.48;;;;;;;13.68;61.74;100589.97;1601180;89;21076;-66
2023/05/15 03:30:30;;;;;;;39.45;17.02;;;;;;;13.72;61.65;100589.86;1580380;89;21202;-66
2023/05/15 03:33:02;;;;;;;36.98;14.53;;;;;;;13.76;61.55;100591.12;1580660;89;21064;-65
2023/05/15 03:35:31;;;;;;;34.43;15.38;;;;;;;13.82;61.48;100597.69;1580588;89;21207;-66
2023/05/15 03:38:00;;;;;;;42.20;16.27;;;;;;;13.84;61.33;100592.81;1601292;89;21085;-65
2023/05/15 03:40:29;;;;;;;34.55;15.95;;;;;;;13.89;61.31;100594.39;1601002;89;21110;-66
2023/05/15 03:42:59;;;;;;;39.73;17.27;;;;;;;13.91;61.22;100593.11;1618099;85;21074;-66
2023/05/15 03:45:29;;;;;;;36.55;15.40;;;;;;;13.96;61.38;100592.47;1658507;85;21026;-64
2023/05/15 03:47:58;;;;;;;34.35;14.75;;;;;;;14.04;61.39;100603.26;1679646;85;21040;-66
2023/05/15 03:50:28;;;;;;;32.58;15.05;;;;;;;14.11;61.45;100597.73;1679846;85;21161;-66
2023/05/15 03:52:59;;;;;;;30.02;13.10;;;;;;;14.17;61.46;100597.72;1679933;85;21028;-65
2023/05/15 03:55:28;;;;;;;36.40;14.43;;;;;;;14.22;61.53;100595.16;1660564;85;21444;-66
2023/05/15 03:57:58;;;;;;;27.07;13.15;;;;;;;14.26;61.49;100600.55;1679784;85;21039;-64
2023/05/15 04:00:30;;;;;;;25.82;13.30;;;;;;;14.28;61.40;100599.80;1679602;85;21016;-68
2023/05/15 04:03:00;;;;;;;30.50;13.35;;;;;;;14.29;61.41;100595.98;1679931;85;21484;-67
2023/05/15 04:05:29;;;;;;;27.05;12.75;;;;;;;14.32;61.38;100600.77;1683533;85;21147;-66
2023/05/15 04:08:00;;;;;;;25.85;13.25;;;;;;;14.36;61.25;100602.87;1681948;85;21104;-66
2023/05/15 04:10:31;;;;;;;32.88;12.50;;;;;;;14.42;61.09;100604.80;1686133;85;21069;-66
2023/05/15 04:13:01;;;;;;;24.82;12.20;;;;;;;14.50;60.98;100600.41;1689710;84;21053;-67
2023/05/15 04:15:30;;;;;;;24.30;12.73;;;;;;;14.59;60.83;100601.02;1686210;84;21080;-66
2023/05/15 04:17:59;;;;;;;28.32;13.13;;;;;;;14.65;60.76;100597.38;1686242;85;21073;-68
2023/05/15 04:20:28;;;;;;;25.43;12.55;;;;;;;14.74;60.66;100605.71;1686107;85;21081;-67
2023/05/15 04:22:59;;;;;;;22.87;12.30;;;;;;;14.83;60.49;100604.39;1686287;85;21056;-67
2023/05/15 04:25:28;;;;;;;28.73;12.47;;;;;;;14.92;60.68;100604.98;1689727;84;21080;-66
2023/05/15 04:27:58;;;;;;;25.40;12.70;;;;;;;15.01;60.53;100606.97;1686007;85;21072;-66
2023/05/15 04:30:27;;;;;;;30.15;12.78;;;;;;;15.10;60.12;100607.02;1686211;85;21540;-64
2023/05/15 04:32:57;;;;;;;26.30;12.33;;;;;;;15.19;59.66;100602.92;1635216;87;21085;-66
2023/05/15 04:35:26;;;;;;;23.50;12.03;;;;;;;15.26;59.80;100599.58;1635269;88;21063;-68
2023/05/15 04:37:56;;;;;;;25.35;12.70;;;;;;;15.35;59.62;100596.86;1613657;88;21063;-64
2023/05/15 04:40:25;;;;;;;36.10;13.58;;;;;;;15.44;59.35;100591.91;1613834;88;21105;-66
2023/05/15 04:42:55;;;;;;;23.30;11.95;;;;;;;15.52;58.68;100593.84;1635503;88;21075;-66
2023/05/15 04:45:25;;;;;;;24.40;12.80;;;;;;;15.63;58.45;100591.48;1635473;88;21087;-66
2023/05/15 04:47:54;;;;;;;25.90;12.55;;;;;;;15.74;57.59;100586.59;1634571;88;21067;-65
2023/05/15 04:50:24;;;;;;;26.27;14.93;;;;;;;15.87;56.93;100578.18;1581748;87;21042;-66
2023/05/15 04:52:53;;;;;;;25.68;12.88;;;;;;;16.02;56.32;100584.72;1672749;85;21032;-66
2023/05/15 04:55:23;;;;;;;28.27;16.73;;;;;;;16.16;55.71;100580.20;1672767;85;21511;-66
2023/05/15 04:57:54;;;;;;;40.65;14.78;;;;;;;16.33;55.04;100586.52;1676260;85;21123;-67
2023/05/15 05:00:23;;;;;;;37.03;14.40;;;;;;;16.51;54.67;100580.98;1672683;86;21064;-68
2023/05/15 05:02:54;;;;;;;29.10;15.53;;;;;;;16.70;54.32;100583.21;1673080;85;21064;-67
2023/05/15 05:05:23;;;;;;;26.97;14.40;;;;;;;16.91;53.76;100579.96;1672679;86;21076;-65
2023/05/15 05:07:52;;;;;;;31.37;15.10;;;;;;;17.14;52.81;100573.66;1672854;86;21099;-68
2023/05/15 05:10:22;;;;;;;24.27;14.10;;;;;;;17.35;52.15;100572.26;1654028;86;21064;-67
2023/05/15 05:12:53;;;;;;;30.77;16.55;;;;;;;17.59;51.50;100570.39;1676313;85;21075;-67
2023/05/15 05:15:22;;;;;;;33.88;16.67;;;;;;;17.90;50.75;100577.00;1672603;85;21064;-66
2023/05/15 05:17:53;;;;;;;31.23;14.55;;;;;;;18.24;49.92;100564.21;1672632;86;21048;-67
2023/05/15 05:20:22;;;;;;;34.05;15.53;;;;;;;18.62;49.05;100562.81;1672616;86;21552;-67
2023/05/15 05:22:52;;;;;;;30.57;15.53;;;;;;;19.02;47.84;100560.55;1672823;85;21036;-67
2023/05/15 05:25:22;;;;;;;29.85;15.75;;;;;;;19.39;46.66;100556.22;1672744;85;21548;-65
2023/05/15 05:27:52;;;;;;;30.82;15.32;;;;;;;19.77;45.98;100551.34;1672462;85;21087;-68
2023/05/15 05:30:21;;;;;;;35.48;14.80;;;;;;;20.20;44.81;100551.99;1653945;86;21084;-68
2023/05/15 05:32:52;;;;;;;30.05;14.30;;;;;;;20.60;43.59;100554.19;1672764;86;21040;-67
2023/05/15 05:35:21;;;;;;;28.40;14.20;;;;;;;20.98;42.76;100558.27;1672924;86;21534;-67
2023/05/15 05:37:50;;;;;;;23.80;13.20;;;;;;;21.37;41.72;100551.16;1676168;85;21142;-67
2023/05/15 05:40:19;;;;;;;20.50;10.55;;;;;;;;;;1672569;85;21451;-66
2023/05/15 05:42:49;;;;;;;19.10;8.93;;;;;;;22.18;39.29;100551.82;1679442;85;21189;-66
2023/05/15 05:45:18;;;;;;;17.37;9.20;;;;;;;22.59;38.22;100552.00;1679690;85;21079;-69
2023/05/15 05:47:48;;;;;;;20.37;9.73;;;;;;;23.01;37.39;100553.30;1679609;85;21055;-65
2023/05/15 05:50:17;;;;;;;17.05;7.67;;;;;;;23.42;36.65;100551.42;1633045;88;21461;-67
2023/05/15 05:52:46;;;;;;;15.88;6.62;;;;;;;23.80;35.06;100545.00;1554427;92;21122;-67
2023/05/15 05:55:16;;;;;;;13.60;5.58;;;;;;;24.16;33.13;100542.44;1558094;92;21533;-68
2023/05/15 05:57:45;;;;;;;10.28;5.28;;;;;;;24.49;31.84;100543.75;1505029;94;21063;-68
2023/05/15 06:00:14;;;;;;;10.78;5.60;;;;;;;24.81;30.72;100538.30;1558372;92;21173;-67
2023/05/15 06:02:44;;;;;;;9.78;4.95;;;;;;;25.09;29.95;100542.36;1558332;92;21125;-70
2023/05/15 06:05:13;;;;;;;10.78;4.92;;;;;;;25.34;29.02;100539.93;1558438;92;21205;-67
2023/05/15 06:07:43;;;;;;;8.65;4.10;;;;;;;25.56;27.87;100539.77;1567969;89;21102;-68
2023/05/15 06:10:12;;;;;;;13.88;4.53;;;;;;;25.65;26.82;100534.92;1623250;85;21067;-68
2023/05/15 06:12:42;;;;;;;10.23;4.75;;;;;;;25.82;27.06;100536.75;1687845;85;21063;-67
2023/05/15 06:15:13;;;;;;;13.08;4.35;;;;;;;26.04;26.38;100536.28;1679636;85;21051;-68
2023/05/15 06:17:43;;;;;;;6.75;3.75;;;;;;;26.13;25.38;100538.14;1679941;85;21183;-68
2023/05/15 06:20:14;;;;;;;9.53;4.05;;;;;;;26.43;25.31;100538.95;1679801;84;21179;-68
2023/05/15 06:22:43;;;;;;;10.60;4.62;;;;;;;26.43;25.31;100538.95;1683333;85;21063;-68
2023/05/15 06:25:13;;;;;;;16.82;5.08;;;;;;;26.64;25.30;100526.88;1680244;85;21538;-68
2023/05/15 06:27:43;;;;;;;7.80;4.47;;;;;;;26.85;25.18;100533.34;1679863;84;21541;-66
2023/05/15 06:30:13;;;;;;;11.78;4.10;;;;;;;26.91;25.23;100538.89;1679863;85;21491;-69
2023/05/15 06:32:43;;;;;;;18.50;5.20;;;;;;;26.99;25.16;100529.81;1679837;84;21044;-69
2023/05/15 06:35:12;;;;;;;9.08;5.00;;;;;;;27.17;25.17;100530.38;1679988;85;21023;-67
2023/05/15 06:37:42;;;;;;;9.35;4.90;;;;;;;27.33;24.95;100531.83;1679784;84;21151;-68
2023/05/15 06:40:12;;;;;;;13.35;4.58;;;;;;;27.43;25.16;100531.66;1652828;85;21063;-68
2023/05/15 06:42:42;;;;;;;8.50;3.75;;;;;;;27.58;24.44;100526.91;1680029;84;21019;-69
2023/05/15 06:45:11;;;;;;;10.20;3.85;;;;;;;27.61;23.63;100525.76;1679906;85;21067;-68
2023/05/15 06:47:41;;;;;;;14.23;4.25;;;;;;;27.61;23.80;100524.92;1680008;85;21080;-68
2023/05/15 06:50:10;;;;;;;10.13;3.75;;;;;;;27.69;23.35;100521.40;1679808;85;21103;-68
2023/05/15 06:52:39;;;;;;;11.35;3.47;;;;;;;27.79;22.97;100516.98;1660978;85;21076;-68
2023/05/15 06:55:09;;;;;;;7.72;3.40;;;;;;;27.80;22.95;100518.66;1680113;85;21079;-68
2023/05/15 06:57:39;;;;;;;9.78;4.15;;;;;;;27.87;22.61;100519.09;1679993;84;21518;-69
2023/05/15 07:00:09;;;;;;;9.78;4.03;;;;;;;27.98;22.64;100522.01;1683816;85;21059;-66
2023/05/15 07:02:39;;;;;;;14.20;4.78;;;;;;;28.01;22.67;100524.77;1680320;85;21614;-69
2023/05/15 07:05:09;;;;;;;15.30;3.80;;;;;;;28.06;22.94;100516.22;1679971;84;21051;-68
2023/05/15 07:07:39;;;;;;;6.78;4.10;;;;;;;28.18;22.79;100514.30;1683735;84;21513;-67
2023/05/15 07:10:09;;;;;;;7.65;4.15;;;;;;;28.34;22.96;100520.75;1680268;85;21137;-69
2023/05/15 07:12:39;;;;;;;14.03;4.70;;;;;;;28.43;22.74;100518.61;1680252;85;21452;-69
2023/05/15 07:15:09;;;;;;;11.95;4.70;;;;;;;28.50;22.83;100515.63;1660718;85;21087;-69
2023/05/15 07:17:38;;;;;;;20.05;5.72;;;;;;;28.66;22.65;100511.36;1679855;84;21643;-68
2023/05/15 07:20:09;;;;;;;12.65;4.08;;;;;;;28.84;22.33;100515.80;1680248;85;21063;-69
2023/05/15 07:22:39;;;;;;;8.33;4.22;;;;;;;28.90;21.92;100518.18;1661015;85;21220;-68
2023/05/15 07:25:10;;;;;;;12.90;4.30;;;;;;;29.04;21.19;100509.67;1680532;84;21075;-68
2023/05/15 07:27:39;;;;;;;12.88;3.87;;;;;;;29.07;20.87;100506.22;1680087;85;21095;-69
2023/05/15 07:30:10;;;;;;;7.20;3.60;;;;;;;28.96;20.89;100507.61;1683717;84;21065;-68
2023/05/15 07:32:41;;;;;;;9.75;3.47;;;;;;;28.90;20.88;100501.25;1680204;85;21075;-68
2023/05/15 07:35:11;;;;;;;6.95;3.75;;;;;;;28.98;20.63;100500.49;1680164;85;21063;-67
2023/05/15 07:37:41;;;;;;;7.28;3.30;;;;;;;29.08;20.58;100498.58;1680075;85;21052;-68
2023/05/15 07:40:11;;;;;;;6.72;3.33;;;;;;;29.24;20.65;100502.13;1679951;85;21556;-69
2023/05/15 07:42:43;;;;;;;5.80;3.60;;;;;;;29.37;19.67;100505.23;1680063;85;21062;-68
2023/05/15 07:45:13;;;;;;;7.50;3.02;;;;;;;29.30;20.40;100493.81;1679958;85;21036;-68
2023/05/15 07:47:45;;;;;;;10.25;3.92;;;;;;;29.38;19.98;100495.03;1680157;85;21039;-68
2023/05/15 07:50:16;;;;;;;12.73;4.33;;;;;;;29.52;20.17;100494.41;1669430;85;21522;-71
2023/05/15 07:52:45;;;;;;;6.62;3.62;;;;;;;29.67;19.64;100498.83;1663701;86;21081;-69
2023/05/15 07:55:14;;;;;;;10.60;3.37;;;;;;;29.77;19.57;100494.89;1663690;86;21063;-74
2023/05/15 07:57:44;;;;;;;7.80;3.00;;;;;;;29.93;19.76;100493.34;1658822;84;21467;-68
2023/05/15 08:00:16;;;;;;;4.92;3.00;;;;;;;30.02;19.52;100484.94;1663667;86;21066;-69
2023/05/15 08:02:46;;;;;;;8.73;3.12;;;;;;;29.98;19.47;100488.39;1663696;86;21074;-67
2023/05/15 08:05:16;;;;;;;10.63;3.40;;;;;;;29.87;19.28;100479.91;1663537;86;21121;-69
2023/05/15 08:07:45;;;;;;;9.48;3.35;;;;;;;29.76;19.25;100482.76;1655936;85;21021;-70
2023/05/15 08:10:14;;;;;;;7.30;3.50;;;;;;;29.78;19.23;100478.20;1675062;86;21078;-68
2023/05/15 08:12:46;;;;;;;13.13;4.20;;;;;;;29.85;19.16;100477.16;1675078;86;21070;-70
2023/05/15 08:15:15;;;;;;;7.78;3.15;;;;;;;29.90;19.25;100477.02;1620391;88;21080;-71
2023/05/15 08:17:44;;;;;;;9.28;3.75;;;;;;;30.01;18.80;100471.94;1597907;89;21281;-71
2023/05/15 08:20:16;;;;;;;5.95;3.50;;;;;;;30.10;18.48;100469.43;1610383;86;21452;-70
2023/05/15 08:22:45;;;;;;;8.78;3.80;;;;;;;30.20;18.02;100466.30;1639153;87;21050;-70
2023/05/15 08:25:15;;;;;;;6.67;3.42;;;;;;;30.29;18.09;100471.98;1676531;85;21145;-70
2023/05/15 08:27:45;;;;;;;9.65;4.10;;;;;;;30.30;18.33;100473.66;1674174;86;21089;-71
2023/05/15 08:30:15;;;;;;;8.53;4.25;;;;;;;30.15;18.49;100465.05;1652056;86;21105;-71
2023/05/15 08:32:48;;;;;;;7.17;3.40;;;;;;;30.06;18.77;100467.59;1670435;86;21149;-70
2023/05/15 08:35:17;;;;;;;7.22;3.50;;;;;;;30.02;18.46;100463.16;1647882;86;21473;-69
2023/05/15 08:37:47;;;;;;;12.33;3.65;;;;;;;30.00;18.76;100464.63;1670430;86;21473;-70
2023/05/15 08:40:17;;;;;;;7.90;3.00;;;;;;;30.09;19.13;100464.11;1670301;86;21042;-70
2023/05/15 08:42:52;;;;;;;16.27;3.45;;;;;;;30.27;18.56;100461.00;1668491;84;21089;-69
2023/05/15 08:45:22;;;;;;;6.12;3.22;;;;;;;30.32;18.42;100458.61;1670123;86;21113;-71
2023/05/15 08:47:52;;;;;;;6.80;3.33;;;;;;;30.40;18.15;100457.80;1670232;85;21078;-71
2023/05/15 08:50:21;;;;;;;4.15;2.90;;;;;;;30.51;17.65;100454.91;1677946;85;21054;-67
2023/05/15 08:52:51;;;;;;;7.58;3.00;;;;;;;30.58;17.60;100453.87;1686448;85;21039;-70
2023/05/15 08:55:22;;;;;;;3.83;2.62;;;;;;;30.62;17.58;100452.66;1686626;85;21572;-69
2023/05/15 08:57:52;;;;;;;6.97;2.90;;;;;;;30.60;16.80;100450.74;1677248;85;21048;-70
2023/05/15 09:00:21;;;;;;;10.65;3.02;;;;;;;30.48;16.87;100442.84;1685997;84;21083;-70
2023/05/15 09:02:53;;;;;;;6.50;2.70;;;;;;;30.42;16.67;100449.81;1685859;85;21048;-71
2023/05/15 09:05:23;;;;;;;10.18;2.92;;;;;;;30.33;16.77;100447.55;1686690;85;21027;-70
2023/05/15 09:07:53;;;;;;;6.62;3.22;;;;;;;30.21;16.23;100443.11;1598893;90;21175;-69
2023/05/15 09:10:23;;;;;;;5.50;2.77;;;;;;;30.04;16.25;100448.71;1598689;90;21127;-72
2023/05/15 09:12:52;;;;;;;14.73;7.03;;;;;;;29.84;16.49;100445.24;1598390;90;21083;-70
2023/05/15 09:15:23;;;;;;;6.20;3.12;;;;;;;29.62;17.30;100446.72;1573947;90;21076;-68
2023/05/15 09:17:53;;;;;;;4.70;3.17;;;;;;;29.42;17.58;100445.23;1598632;90;21151;-70
2023/05/15 09:20:30;;;;;;;9.23;3.20;;;;;;;29.31;17.45;100433.95;1598488;90;21146;-69
2023/05/15 09:23:02;;;;;;;5.60;3.12;;;;;;;29.17;17.65;100441.63;1605224;89;21071;-69
2023/05/15 09:25:40;;;;;;;9.48;3.08;;;;;;;28.98;18.20;100441.83;1644000;84;21460;-68
2023/05/15 09:28:27;;;;;;;5.40;3.10;;;;;;;28.75;18.30;100437.28;1676961;85;21087;-68
2023/05/15 09:31:02;;;;;;;6.25;3.33;;;;;;;28.56;18.35;100431.19;1660967;85;21047;-69
2023/05/15 09:33:36;;;;;;;5.35;3.00;;;;;;;28.35;18.49;100421.53;1676922;85;21133;-70
2023/05/15 09:36:07;;;;;;;6.30;3.30;;;;;;;28.24;18.90;100428.54;1677166;85;21091;-71
2023/05/15 09:38:42;;;;;;;8.53;3.08;;;;;;;28.19;19.02;100436.50;1687237;85;21047;-70
2023/05/15 09:41:11;;;;;;;9.28;3.52;;;;;;;28.10;18.99;100423.72;1665969;85;21632;-68
2023/05/15 09:43:40;;;;;;;5.22;2.80;;;;;;;27.99;19.25;100427.06;1677405;85;21099;-70
2023/05/15 09:46:11;;;;;;;5.97;3.10;;;;;;;27.92;18.97;100431.67;1663530;85;21432;-70
2023/05/15 09:48:41;;;;;;;8.68;2.90;;;;;;;27.87;18.68;100430.37;1666550;85;21051;-71
2023/05/15 09:51:18;;;;;;;3.95;2.45;;;;;;;27.89;19.04;100430.06;1667735;84;21058;-72
2023/05/15 09:53:51;;;;;;;9.00;2.60;;;;;;;27.92;19.03;100418.17;1684308;85;21505;-71
2023/05/15 09:56:21;;;;;;;4.53;2.90;;;;;;;27.76;17.90;100435.38;1684093;85;21035;-70
2023/05/15 09:59:00;;;;;;;5.35;2.92;;;;;;;27.76;17.90;100435.38;1696189;84;21491;-71
2023/05/15 10:01:30;;;;;;;6.00;3.30;;;;;;;27.67;18.61;100423.73;1682710;85;21120;-69
2023/05/15 10:04:01;;;;;;;4.25;2.72;;;;;;;27.60;19.10;100428.34;1695171;84;21589;-69
2023/05/15 10:06:36;;;;;;;3.92;2.35;;;;;;;27.52;18.79;100433.84;1684077;85;21119;-69
2023/05/15 10:09:07;;;;;;;;;;;;;;;27.45;18.28;100421.02;1699464;84;21035;-68
2023/05/15 10:11:39;;;;;;;8.33;2.80;;;;;;;27.41;18.64;100424.19;1684169;85;20159;-73
2023/05/15 10:14:11;;;;;;;11.73;3.52;;;;;;;27.41;18.48;100425.59;1696784;84;21087;-72
2023/05/15 10:16:40;;;;;;;4.90;2.67;;;;;;;27.44;18.62;100415.12;1681897;85;21087;-71
2023/05/15 10:19:11;;;;;;;4.55;2.90;;;;;;;27.51;18.84;100412.48;1696829;84;21058;-71
2023/05/15 10:21:41;;;;;;;7.22;3.00;;;;;;;27.53;18.93;100411.59;1684084;85;21083;-68
2023/05/15 10:24:11;;;;;;;5.90;2.75;;;;;;;27.54;18.71;100408.47;1696634;84;21098;-71
2023/05/15 10:26:42;;;;;;;6.05;3.12;;;;;;;27.53;18.16;100411.59;1684058;85;21044;-69
2023/05/15 10:29:12;;;;;;;7.97;3.72;;;;;;;27.48;18.32;100413.36;1696762;84;21055;-70
2023/05/15 10:31:41;;;;;;;4.72;2.58;;;;;;;27.41;18.56;100415.74;1681888;85;21520;-69
2023/05/15 10:34:12;;;;;;;6.85;2.87;;;;;;;27.43;18.55;100405.59;1696842;84;21134;-69
2023/05/15 10:36:42;;;;;;;4.83;2.92;;;;;;;27.44;18.66;100398.23;1684153;85;21008;-72
2023/05/15 10:39:11;;;;;;;7.90;3.67;;;;;;;27.48;18.90;100399.29;1696967;84;21011;-70
2023/05/15 10:41:42;;;;;;;6.00;3.02;;;;;;;27.49;19.25;100395.90;1684119;85;21011;-68
2023/05/15 10:44:12;;;;;;;8.48;3.20;;;;;;;27.41;19.38;100391.82;1696626;84;21156;-70
2023/05/15 10:46:42;;;;;;;12.63;3.80;;;;;;;27.30;19.49;100386.09;1684562;85;21095;-70
2023/05/15 10:49:12;;;;;;;14.23;4.28;;;;;;;27.28;19.82;100393.17;1696948;84;21584;-70
2023/05/15 10:51:42;;;;;;;8.45;3.87;;;;;;;27.35;19.96;100386.60;1684313;85;21087;-71
2023/05/15 10:54:11;;;;;;;8.55;3.70;;;;;;;27.32;19.80;100395.09;1581013;89;21240;-74
2023/05/15 10:56:40;;;;;;;5.25;3.22;;;;;;;27.23;19.99;100390.45;1571631;90;21116;-69
2023/05/15 10:59:11;;;;;;;9.73;3.55;;;;;;;27.18;20.06;100395.59;1551754;91;21083;-67
2023/05/15 11:01:40;;;;;;;5.65;3.22;;;;;;;27.12;20.18;100383.60;1524148;93;21124;-67
2023/05/15 11:04:14;;;;;;;4.72;3.02;;;;;;;27.12;20.26;100379.37;1574148;88;21111;-67
2023/05/15 11:06:45;;;;;;;7.08;2.62;;;;;;;27.10;20.12;100376.05;1526427;93;21093;-67
2023/05/15 11:09:36;;;;;;;7.33;3.40;;;;;;;27.07;19.66;100369.63;1503089;95;21545;-68
2023/05/15 11:12:10;;;;;;;7.87;2.90;;;;;;;27.05;19.75;100361.23;1499839;95;21148;-67
2023/05/15 11:14:55;;;;;;;8.68;3.90;;;;;;;27.06;19.81;100361.50;1478031;96;21108;-66
2023/05/15 11:17:25;;;;;;;7.95;3.52;;;;;;;27.06;19.93;100359.52;1478245;96;21550;-66
2023/05/15 11:19:57;;;;;;;5.35;3.00;;;;;;;27.10;20.03;100366.77;1443157;99;21673;-67
2023/05/15 11:22:32;;;;;;;4.97;3.05;;;;;;;27.14;19.99;100356.56;1443153;99;21426;-67
2023/05/15 11:25:05;;;;;;;5.10;3.30;;;;;;;27.13;19.66;100342.23;1502218;92;21091;-68
2023/05/15 11:27:45;;;;;;;7.37;3.22;;;;;;;27.11;19.64;100341.72;1563094;89;21059;-67
2023/05/15 11:30:25;;;;;;;9.48;3.40;;;;;;;27.01;19.83;100337.69;1621704;87;21232;-67
2023/05/15 11:33:10;;;;;;;9.80;3.40;;;;;;;26.96;19.81;100332.12;1614959;88;21063;-68
2023/05/15 11:35:47;;;;;;;11.45;3.70;;;;;;;26.95;20.00;100330.45;1628667;87;21107;-68